sensor_id;sensor_type;location;lat;lon;timestamp;pressure;altitude;pressure_sealevel;temperature;humidity
78488;BME280;67885;49.758;9.582;2023-03-19T00:01:45;98852.06;;;15.04;46.65
78488;BME280;67885;49.758;9.582;2023-03-19T00:04:12;98857.91;;;15.08;46.51
78488;BME280;67885;49.758;9.582;2023-03-19T00:06:40;98877.44;;;15.16;46.93
78488;BME280;67885;49.758;9.582;2023-03-19T00:09:07;98876.63;;;15.16;47.46
78488;BME280;67885;49.758;9.582;2023-03-19T00:11:35;98884.94;;;15.13;46.45
78488;BME280;67885;49.758;9.582;2023-03-19T00:14:02;98887.09;;;15.09;46.41
78488;BME280;67885;49.758;9.582;2023-03-19T00:16:28;98892.56;;;14.99;47.34
78488;BME280;67885;49.758;9.582;2023-03-19T00:18:55;98865.53;;;14.94;46.94
78488;BME280;67885;49.758;9.582;2023-03-19T00:21:22;98874.22;;;14.96;46.42
78488;BME280;67885;49.758;9.582;2023-03-19T00:23:49;98850.44;;;14.77;47.36
78488;BME280;67885;49.758;9.582;2023-03-19T00:26:16;98886.03;;;14.94;46.99
78488;BME280;67885;49.758;9.582;2023-03-19T00:28:44;98862.78;;;14.78;46.44
78488;BME280;67885;49.758;9.582;2023-03-19T00:31:14;98884.47;;;14.83;46.59
78488;BME280;67885;49.758;9.582;2023-03-19T00:33:42;98854.91;;;14.50;47.50
78488;BME280;67885;49.758;9.582;2023-03-19T00:36:09;98788.69;;;14.03;47.29
78488;BME280;67885;49.758;9.582;2023-03-19T00:38:37;98875.03;;;14.44;47.22
78488;BME280;67885;49.758;9.582;2023-03-19T00:41:05;98899.91;;;14.53;47.45
78488;BME280;67885;49.758;9.582;2023-03-19T00:43:32;98893.59;;;14.54;47.71
78488;BME280;67885;49.758;9.582;2023-03-19T00:46:00;98892.59;;;14.55;47.91
78488;BME280;67885;49.758;9.582;2023-03-19T00:48:27;98868.97;;;14.34;47.81
78488;BME280;67885;49.758;9.582;2023-03-19T00:50:55;98898.22;;;14.52;47.87
78488;BME280;67885;49.758;9.582;2023-03-19T00:53:21;98891.16;;;14.43;47.68
78488;BME280;67885;49.758;9.582;2023-03-19T00:55:48;98896.13;;;14.38;48.77
78488;BME280;67885;49.758;9.582;2023-03-19T00:58:15;98900.41;;;14.30;47.72
78488;BME280;67885;49.758;9.582;2023-03-19T01:00:41;98909.31;;;14.21;47.72
78488;BME280;67885;49.758;9.582;2023-03-19T01:03:09;98913.59;;;14.14;47.83
78488;BME280;67885;49.758;9.582;2023-03-19T01:05:36;98891.00;;;14.00;48.20
78488;BME280;67885;49.758;9.582;2023-03-19T01:08:03;98850.75;;;13.67;48.71
78488;BME280;67885;49.758;9.582;2023-03-19T01:10:32;98905.97;;;14.01;49.34
78488;BME280;67885;49.758;9.582;2023-03-19T01:12:58;98910.31;;;14.02;48.83
78488;BME280;67885;49.758;9.582;2023-03-19T01:15:25;98918.16;;;14.04;49.43
78488;BME280;67885;49.758;9.582;2023-03-19T01:17:52;98922.31;;;14.06;48.65
78488;BME280;67885;49.758;9.582;2023-03-19T01:20:20;98918.16;;;14.04;49.36
78488;BME280;67885;49.758;9.582;2023-03-19T01:22:48;98925.84;;;14.07;49.45
78488;BME280;67885;49.758;9.582;2023-03-19T01:25:15;98933.53;;;14.10;49.44
78488;BME280;67885;49.758;9.582;2023-03-19T01:27:42;98912.31;;;14.00;48.65
78488;BME280;67885;49.758;9.582;2023-03-19T01:30:09;98927.81;;;14.05;49.05
78488;BME280;67885;49.758;9.582;2023-03-19T01:32:36;98918.44;;;14.00;48.84
78488;BME280;67885;49.758;9.582;2023-03-19T01:35:03;98928.63;;;13.87;48.83
78488;BME280;67885;49.758;9.582;2023-03-19T01:37:31;98910.94;;;13.96;49.02
78488;BME280;67885;49.758;9.582;2023-03-19T01:39:58;98915.47;;;13.86;49.69
78488;BME280;67885;49.758;9.582;2023-03-19T01:42:25;98850.97;;;13.38;49.64
78488;BME280;67885;49.758;9.582;2023-03-19T01:44:52;98920.03;;;13.75;50.73
78488;BME280;67885;49.758;9.582;2023-03-19T01:47:28;98913.06;;;13.74;50.37
78488;BME280;67885;49.758;9.582;2023-03-19T01:49:57;98910.22;;;13.76;50.65
78488;BME280;67885;49.758;9.582;2023-03-19T01:52:27;98911.06;;;13.76;51.34
78488;BME280;67885;49.758;9.582;2023-03-19T01:54:59;98914.94;;;13.82;49.71
78488;BME280;67885;49.758;9.582;2023-03-19T01:57:28;98917.16;;;13.87;50.05
78488;BME280;67885;49.758;9.582;2023-03-19T02:00:00;98923.16;;;13.89;50.28
78488;BME280;67885;49.758;9.582;2023-03-19T02:02:29;98905.34;;;13.71;50.96
78488;BME280;67885;49.758;9.582;2023-03-19T02:05:00;98596.50;;;11.92;49.68
78488;BME280;67885;49.758;9.582;2023-03-19T02:07:31;98892.28;;;13.78;49.92
78488;BME280;67885;49.758;9.582;2023-03-19T02:10:03;98854.47;;;13.56;50.00
78488;BME280;67885;49.758;9.582;2023-03-19T02:12:30;98846.25;;;13.49;49.82
78488;BME280;67885;49.758;9.582;2023-03-19T02:14:57;98908.19;;;13.88;50.00
78488;BME280;67885;49.758;9.582;2023-03-19T02:17:24;98909.34;;;13.85;50.75
78488;BME280;67885;49.758;9.582;2023-03-19T02:19:58;98903.16;;;13.85;50.41
78488;BME280;67885;49.758;9.582;2023-03-19T02:22:28;98876.16;;;13.61;49.96
78488;BME280;67885;49.758;9.582;2023-03-19T02:25:03;98902.31;;;13.84;50.64
78488;BME280;67885;49.758;9.582;2023-03-19T02:27:34;98901.03;;;13.88;49.72
78488;BME280;67885;49.758;9.582;2023-03-19T02:30:18;98904.69;;;13.87;50.29
78488;BME280;67885;49.758;9.582;2023-03-19T02:32:45;98910.47;;;13.82;49.88
78488;BME280;67885;49.758;9.582;2023-03-19T02:35:11;98873.47;;;13.61;50.67
78488;BME280;67885;49.758;9.582;2023-03-19T02:37:38;98908.31;;;13.86;50.35
78488;BME280;67885;49.758;9.582;2023-03-19T02:40:10;98915.16;;;13.89;51.07
78488;BME280;67885;49.758;9.582;2023-03-19T02:42:40;98904.53;;;13.89;50.80
78488;BME280;67885;49.758;9.582;2023-03-19T02:45:07;98907.34;;;13.87;50.63
78488;BME280;67885;49.758;9.582;2023-03-19T02:47:34;98908.88;;;13.90;50.61
78488;BME280;67885;49.758;9.582;2023-03-19T02:50:01;98861.31;;;13.59;51.52
78488;BME280;67885;49.758;9.582;2023-03-19T02:52:27;98917.25;;;13.95;51.00
78488;BME280;67885;49.758;9.582;2023-03-19T02:54:54;98879.75;;;13.70;50.92
78488;BME280;67885;49.758;9.582;2023-03-19T02:57:21;98917.00;;;13.88;50.85
78488;BME280;67885;49.758;9.582;2023-03-19T02:59:49;98834.75;;;13.31;50.94
78488;BME280;67885;49.758;9.582;2023-03-19T03:02:15;98919.03;;;13.76;51.18
78488;BME280;67885;49.758;9.582;2023-03-19T03:04:43;98915.41;;;13.77;50.88
78488;BME280;67885;49.758;9.582;2023-03-19T03:07:10;98863.66;;;13.44;50.87
78488;BME280;67885;49.758;9.582;2023-03-19T03:09:37;98910.44;;;13.64;51.19
78488;BME280;67885;49.758;9.582;2023-03-19T03:12:05;98915.66;;;13.56;51.50
78488;BME280;67885;49.758;9.582;2023-03-19T03:14:31;98872.41;;;13.26;52.22
78488;BME280;67885;49.758;9.582;2023-03-19T03:17:00;98938.19;;;13.62;52.39
78488;BME280;67885;49.758;9.582;2023-03-19T03:19:27;98915.28;;;13.51;51.98
78488;BME280;67885;49.758;9.582;2023-03-19T03:21:54;98930.75;;;13.65;51.50
78488;BME280;67885;49.758;9.582;2023-03-19T03:24:20;98927.41;;;13.63;51.28
78488;BME280;67885;49.758;9.582;2023-03-19T03:26:47;98945.72;;;13.66;51.27
78488;BME280;67885;49.758;9.582;2023-03-19T03:29:13;98945.56;;;13.68;51.64
78488;BME280;67885;49.758;9.582;2023-03-19T03:31:40;98930.22;;;13.62;51.81
78488;BME280;67885;49.758;9.582;2023-03-19T03:34:09;98946.63;;;13.75;51.99
78488;BME280;67885;49.758;9.582;2023-03-19T03:36:35;98949.44;;;13.74;51.74
78488;BME280;67885;49.758;9.582;2023-03-19T03:39:02;98949.91;;;13.69;51.21
78488;BME280;67885;49.758;9.582;2023-03-19T03:41:29;98951.72;;;13.69;51.71
78488;BME280;67885;49.758;9.582;2023-03-19T03:43:55;98955.09;;;13.71;51.94
78488;BME280;67885;49.758;9.582;2023-03-19T03:46:22;98950.63;;;13.43;51.20
78488;BME280;67885;49.758;9.582;2023-03-19T03:48:49;98955.31;;;13.49;52.93
78488;BME280;67885;49.758;9.582;2023-03-19T03:51:18;98957.47;;;13.46;52.46
78488;BME280;67885;49.758;9.582;2023-03-19T03:53:46;98944.59;;;13.41;52.21
78488;BME280;67885;49.758;9.582;2023-03-19T03:56:13;98940.41;;;13.39;52.62
78488;BME280;67885;49.758;9.582;2023-03-19T03:58:39;98932.59;;;13.27;52.17
78488;BME280;67885;49.758;9.582;2023-03-19T04:01:06;98811.50;;;12.40;53.26
78488;BME280;67885;49.758;9.582;2023-03-19T04:03:33;98952.19;;;13.26;53.34
78488;BME280;67885;49.758;9.582;2023-03-19T04:05:59;98959.03;;;13.29;53.63
78488;BME280;67885;49.758;9.582;2023-03-19T04:08:27;98866.47;;;12.77;53.77
78488;BME280;67885;49.758;9.582;2023-03-19T04:10:54;98948.94;;;13.32;53.30
78488;BME280;67885;49.758;9.582;2023-03-19T04:13:20;98946.97;;;13.35;53.23
78488;BME280;67885;49.758;9.582;2023-03-19T04:15:47;98944.59;;;13.41;52.93
78488;BME280;67885;49.758;9.582;2023-03-19T04:18:14;98956.47;;;13.47;52.31
78488;BME280;67885;49.758;9.582;2023-03-19T04:20:40;98935.94;;;13.39;52.68
78488;BME280;67885;49.758;9.582;2023-03-19T04:23:07;98953.53;;;13.50;53.48
78488;BME280;67885;49.758;9.582;2023-03-19T04:25:38;98934.66;;;13.43;52.16
78488;BME280;67885;49.758;9.582;2023-03-19T04:28:04;98954.28;;;13.60;53.04
78488;BME280;67885;49.758;9.582;2023-03-19T04:30:31;98961.13;;;13.63;52.04
78488;BME280;67885;49.758;9.582;2023-03-19T04:32:57;98931.63;;;13.28;52.36
78488;BME280;67885;49.758;9.582;2023-03-19T04:35:24;98962.97;;;13.62;53.47
78488;BME280;67885;49.758;9.582;2023-03-19T04:37:51;98976.44;;;13.61;52.63
78488;BME280;67885;49.758;9.582;2023-03-19T04:40:18;98977.00;;;13.55;52.64
78488;BME280;67885;49.758;9.582;2023-03-19T04:42:46;99003.09;;;13.41;53.12
78488;BME280;67885;49.758;9.582;2023-03-19T04:45:12;98981.44;;;13.26;53.42
78488;BME280;67885;49.758;9.582;2023-03-19T04:47:39;99007.38;;;13.14;53.44
78488;BME280;67885;49.758;9.582;2023-03-19T04:50:08;98976.41;;;13.23;52.79
78488;BME280;67885;49.758;9.582;2023-03-19T04:52:36;98981.72;;;13.23;52.69
78488;BME280;67885;49.758;9.582;2023-03-19T04:55:04;98980.59;;;13.26;54.04
78488;BME280;67885;49.758;9.582;2023-03-19T04:57:31;98984.66;;;13.30;52.84
78488;BME280;67885;49.758;9.582;2023-03-19T04:59:59;98975.75;;;13.21;53.05
78488;BME280;67885;49.758;9.582;2023-03-19T05:02:25;98986.88;;;13.35;52.95
78488;BME280;67885;49.758;9.582;2023-03-19T05:04:52;98987.59;;;13.37;53.79
78488;BME280;67885;49.758;9.582;2023-03-19T05:07:19;98991.09;;;13.37;53.44
78488;BME280;67885;49.758;9.582;2023-03-19T05:09:46;99002.59;;;13.38;53.33
78488;BME280;67885;49.758;9.582;2023-03-19T05:12:13;98961.19;;;13.15;53.95
78488;BME280;67885;49.758;9.582;2023-03-19T05:14:40;98991.34;;;13.34;54.03
78488;BME280;67885;49.758;9.582;2023-03-19T05:17:08;98958.53;;;13.15;53.91
78488;BME280;67885;49.758;9.582;2023-03-19T05:19:35;98960.06;;;13.18;53.44
78488;BME280;67885;49.758;9.582;2023-03-19T05:22:02;98992.47;;;13.41;53.96
78488;BME280;67885;49.758;9.582;2023-03-19T05:24:29;98994.00;;;13.44;53.76
78488;BME280;67885;49.758;9.582;2023-03-19T05:26:56;98989.09;;;13.49;52.84
78488;BME280;67885;49.758;9.582;2023-03-19T05:29:22;98977.75;;;13.47;52.55
78488;BME280;67885;49.758;9.582;2023-03-19T05:31:49;98923.38;;;13.22;51.29
78488;BME280;67885;49.758;9.582;2023-03-19T05:34:17;98998.72;;;13.78;51.82
78488;BME280;67885;49.758;9.582;2023-03-19T05:36:44;98993.81;;;13.83;52.84
78488;BME280;67885;49.758;9.582;2023-03-19T05:39:10;98966.47;;;13.63;52.42
78488;BME280;67885;49.758;9.582;2023-03-19T05:41:37;98997.34;;;13.74;52.55
78488;BME280;67885;49.758;9.582;2023-03-19T05:44:04;99003.13;;;13.69;52.58
78488;BME280;67885;49.758;9.582;2023-03-19T05:46:31;99005.81;;;13.69;52.17
78488;BME280;67885;49.758;9.582;2023-03-19T05:48:57;98973.03;;;13.41;52.20
78488;BME280;67885;49.758;9.582;2023-03-19T05:51:25;99019.72;;;13.53;52.87
78488;BME280;67885;49.758;9.582;2023-03-19T05:53:52;99013.03;;;13.49;52.80
78488;BME280;67885;49.758;9.582;2023-03-19T05:56:18;98990.28;;;13.17;53.39
78488;BME280;67885;49.758;9.582;2023-03-19T05:58:46;99036.31;;;13.37;53.58
78488;BME280;67885;49.758;9.582;2023-03-19T06:01:12;99030.16;;;13.37;54.30
78488;BME280;67885;49.758;9.582;2023-03-19T06:03:39;99036.88;;;13.31;54.16
78488;BME280;67885;49.758;9.582;2023-03-19T06:06:06;99031.84;;;13.38;53.14
78488;BME280;67885;49.758;9.582;2023-03-19T06:08:34;99012.56;;;13.16;53.88
78488;BME280;67885;49.758;9.582;2023-03-19T06:11:00;99016.19;;;13.15;53.61
78488;BME280;67885;49.758;9.582;2023-03-19T06:13:27;99051.00;;;13.31;53.13
78488;BME280;67885;49.758;9.582;2023-03-19T06:15:54;99056.16;;;13.33;53.60
78488;BME280;67885;49.758;9.582;2023-03-19T06:18:21;99034.66;;;13.16;53.29
78488;BME280;67885;49.758;9.582;2023-03-19T06:20:48;99059.41;;;13.37;53.26
78488;BME280;67885;49.758;9.582;2023-03-19T06:23:14;98978.47;;;12.92;53.17
78488;BME280;67885;49.758;9.582;2023-03-19T06:25:42;99061.47;;;13.53;52.64
78488;BME280;67885;49.758;9.582;2023-03-19T06:28:09;99064.78;;;13.64;51.99
78488;BME280;67885;49.758;9.582;2023-03-19T06:30:36;99071.59;;;13.77;52.12
78488;BME280;67885;49.758;9.582;2023-03-19T06:33:02;99075.19;;;13.86;51.55
78488;BME280;67885;49.758;9.582;2023-03-19T06:35:29;99052.94;;;13.87;52.13
78488;BME280;67885;49.758;9.582;2023-03-19T06:37:56;99070.78;;;14.04;51.68
78488;BME280;67885;49.758;9.582;2023-03-19T06:40:23;99072.41;;;14.15;51.30
78488;BME280;67885;49.758;9.582;2023-03-19T06:42:51;99067.59;;;14.19;51.53
78488;BME280;67885;49.758;9.582;2023-03-19T06:45:17;99079.47;;;14.24;50.90
78488;BME280;67885;49.758;9.582;2023-03-19T06:47:45;99069.06;;;14.31;51.08
78488;BME280;67885;49.758;9.582;2023-03-19T06:50:13;99072.97;;;14.37;51.69
78488;BME280;67885;49.758;9.582;2023-03-19T06:52:41;99072.03;;;14.46;51.90
78488;BME280;67885;49.758;9.582;2023-03-19T06:55:09;99068.47;;;14.55;52.35
78488;BME280;67885;49.758;9.582;2023-03-19T06:57:36;99067.16;;;14.69;51.06
78488;BME280;67885;49.758;9.582;2023-03-19T07:00:06;99071.69;;;14.77;50.14
78488;BME280;67885;49.758;9.582;2023-03-19T07:02:34;99047.63;;;14.69;50.75
78488;BME280;67885;49.758;9.582;2023-03-19T07:05:01;99077.63;;;14.89;51.87
78488;BME280;67885;49.758;9.582;2023-03-19T07:07:28;99083.78;;;14.89;52.77
78488;BME280;67885;49.758;9.582;2023-03-19T07:09:55;99026.97;;;14.53;53.33
78488;BME280;67885;49.758;9.582;2023-03-19T07:12:22;99082.59;;;14.83;53.01
78488;BME280;67885;49.758;9.582;2023-03-19T07:14:52;99089.06;;;14.81;52.74
78488;BME280;67885;49.758;9.582;2023-03-19T07:17:20;99080.31;;;14.71;52.71
78488;BME280;67885;49.758;9.582;2023-03-19T07:19:46;99089.38;;;14.78;52.74
78488;BME280;67885;49.758;9.582;2023-03-19T07:22:13;99091.28;;;14.67;53.82
78488;BME280;67885;49.758;9.582;2023-03-19T07:24:40;99096.56;;;14.77;53.60
78488;BME280;67885;49.758;9.582;2023-03-19T07:27:07;99092.03;;;14.78;54.07
78488;BME280;67885;49.758;9.582;2023-03-19T07:29:34;99083.28;;;14.67;53.02
78488;BME280;67885;49.758;9.582;2023-03-19T07:32:01;99082.19;;;14.60;53.22
78488;BME280;67885;49.758;9.582;2023-03-19T07:34:28;99102.94;;;14.66;53.29
78488;BME280;67885;49.758;9.582;2023-03-19T07:36:55;99110.25;;;14.64;54.29
78488;BME280;67885;49.758;9.582;2023-03-19T07:39:22;99111.59;;;14.69;53.71
78488;BME280;67885;49.758;9.582;2023-03-19T07:41:49;99119.09;;;14.65;54.08
78488;BME280;67885;49.758;9.582;2023-03-19T07:44:16;99101.31;;;14.56;54.43
78488;BME280;67885;49.758;9.582;2023-03-19T07:46:43;99115.47;;;14.56;55.13
78488;BME280;67885;49.758;9.582;2023-03-19T07:49:09;99023.44;;;13.98;56.10
78488;BME280;67885;49.758;9.582;2023-03-19T07:51:37;99117.72;;;14.51;55.10
78488;BME280;67885;49.758;9.582;2023-03-19T07:54:04;99113.38;;;14.50;55.90
78488;BME280;67885;49.758;9.582;2023-03-19T07:56:31;99118.72;;;14.50;56.08
78488;BME280;67885;49.758;9.582;2023-03-19T07:58:57;99114.78;;;14.54;55.28
78488;BME280;67885;49.758;9.582;2023-03-19T08:01:25;99117.53;;;14.62;54.67
78488;BME280;67885;49.758;9.582;2023-03-19T08:03:51;99117.81;;;14.69;54.57
78488;BME280;67885;49.758;9.582;2023-03-19T08:06:18;99115.66;;;14.73;53.50
78488;BME280;67885;49.758;9.582;2023-03-19T08:08:46;99118.69;;;14.78;53.03
78488;BME280;67885;49.758;9.582;2023-03-19T08:11:13;99118.69;;;14.78;54.16
78488;BME280;67885;49.758;9.582;2023-03-19T08:13:39;99118.78;;;14.86;53.50
78488;BME280;67885;49.758;9.582;2023-03-19T08:16:06;99123.13;;;14.87;52.91
78488;BME280;67885;49.758;9.582;2023-03-19T08:18:33;99121.44;;;14.86;52.70
78488;BME280;67885;49.758;9.582;2023-03-19T08:21:00;99072.59;;;14.49;52.71
78488;BME280;67885;49.758;9.582;2023-03-19T08:23:26;99132.09;;;14.86;51.76
78488;BME280;67885;49.758;9.582;2023-03-19T08:25:55;99132.09;;;14.86;52.03
78488;BME280;67885;49.758;9.582;2023-03-19T08:28:21;99124.25;;;14.84;53.10
78488;BME280;67885;49.758;9.582;2023-03-19T08:30:48;99125.16;;;14.93;52.57
78488;BME280;67885;49.758;9.582;2023-03-19T08:33:15;99115.78;;;14.89;51.95
78488;BME280;67885;49.758;9.582;2023-03-19T08:35:42;99140.78;;;15.06;52.32
78488;BME280;67885;49.758;9.582;2023-03-19T08:38:08;99137.50;;;15.12;51.70
78488;BME280;67885;49.758;9.582;2023-03-19T08:40:35;99139.03;;;15.15;52.21
78488;BME280;67885;49.758;9.582;2023-03-19T08:43:03;99136.00;;;15.10;52.03
78488;BME280;67885;49.758;9.582;2023-03-19T08:45:31;99172.66;;;15.08;52.29
78488;BME280;67885;49.758;9.582;2023-03-19T08:48:01;99144.00;;;15.10;52.85
78488;BME280;67885;49.758;9.582;2023-03-19T08:50:28;99113.28;;;14.88;53.45
78488;BME280;67885;49.758;9.582;2023-03-19T08:52:54;99131.03;;;15.15;53.31
78488;BME280;67885;49.758;9.582;2023-03-19T08:55:22;99141.09;;;15.21;53.26
78488;BME280;67885;49.758;9.582;2023-03-19T08:57:48;99133.41;;;15.18;52.38
78488;BME280;67885;49.758;9.582;2023-03-19T09:00:17;99087.75;;;14.85;52.94
78488;BME280;67885;49.758;9.582;2023-03-19T09:02:58;99085.41;;;14.82;53.49
78488;BME280;67885;49.758;9.582;2023-03-19T09:05:26;99123.97;;;15.06;53.36
78488;BME280;67885;49.758;9.582;2023-03-19T09:07:53;99106.72;;;15.00;52.68
78488;BME280;67885;49.758;9.582;2023-03-19T09:10:20;99144.81;;;15.28;53.55
78488;BME280;67885;49.758;9.582;2023-03-19T09:12:47;99146.53;;;15.38;53.08
78488;BME280;67885;49.758;9.582;2023-03-19T09:15:13;99057.13;;;14.89;53.05
78488;BME280;67885;49.758;9.582;2023-03-19T09:17:41;99151.50;;;15.50;52.87
78488;BME280;67885;49.758;9.582;2023-03-19T09:20:09;99119.47;;;15.32;52.31
78488;BME280;67885;49.758;9.582;2023-03-19T09:22:36;99155.38;;;15.56;52.26
78488;BME280;67885;49.758;9.582;2023-03-19T09:25:03;99126.88;;;15.39;51.58
78488;BME280;67885;49.758;9.582;2023-03-19T09:27:30;99036.13;;;14.86;52.05
78488;BME280;67885;49.758;9.582;2023-03-19T09:29:57;99033.13;;;14.89;52.12
78488;BME280;67885;49.758;9.582;2023-03-19T09:32:24;99150.25;;;15.63;52.74
78488;BME280;67885;49.758;9.582;2023-03-19T09:35:06;99166.34;;;15.79;51.93
78488;BME280;67885;49.758;9.582;2023-03-19T09:37:33;99157.78;;;15.94;51.78
78488;BME280;67885;49.758;9.582;2023-03-19T09:40:00;99164.38;;;16.08;50.75
78488;BME280;67885;49.758;9.582;2023-03-19T09:42:44;99154.19;;;16.11;50.22
78488;BME280;67885;49.758;9.582;2023-03-19T09:45:17;99158.28;;;16.24;50.65
78488;BME280;67885;49.758;9.582;2023-03-19T09:47:45;99152.63;;;16.35;49.59
78488;BME280;67885;49.758;9.582;2023-03-19T09:50:16;99129.53;;;16.17;49.94
78488;BME280;67885;49.758;9.582;2023-03-19T09:52:46;99157.69;;;16.46;50.35
78488;BME280;67885;49.758;9.582;2023-03-19T09:55:30;99128.38;;;16.28;49.99
78488;BME280;67885;49.758;9.582;2023-03-19T09:58:01;99151.50;;;16.46;50.37
78488;BME280;67885;49.758;9.582;2023-03-19T10:00:31;99144.66;;;16.43;50.37
78488;BME280;67885;49.758;9.582;2023-03-19T10:03:05;99026.31;;;15.74;50.40
78488;BME280;67885;49.758;9.582;2023-03-19T10:05:47;99063.69;;;15.74;51.28
78488;BME280;67885;49.758;9.582;2023-03-19T10:08:31;99135.81;;;16.43;50.30
78488;BME280;67885;49.758;9.582;2023-03-19T10:11:13;99150.34;;;16.48;50.27
78488;BME280;67885;49.758;9.582;2023-03-19T10:13:56;99142.00;;;16.51;50.11
78488;BME280;67885;49.758;9.582;2023-03-19T10:16:27;99144.53;;;16.61;50.25
78488;BME280;67885;49.758;9.582;2023-03-19T10:18:57;99127.31;;;16.64;50.14
78488;BME280;67885;49.758;9.582;2023-03-19T10:21:32;99140.06;;;16.86;49.04
78488;BME280;67885;49.758;9.582;2023-03-19T10:24:03;99136.09;;;16.99;49.64
78488;BME280;67885;49.758;9.582;2023-03-19T10:26:33;99139.13;;;17.12;48.92
78488;BME280;67885;49.758;9.582;2023-03-19T10:29:06;99108.50;;;16.90;47.84
78488;BME280;67885;49.758;9.582;2023-03-19T10:31:43;99135.59;;;17.36;47.85
78488;BME280;67885;49.758;9.582;2023-03-19T10:34:28;99118.88;;;17.26;47.38
78488;BME280;67885;49.758;9.582;2023-03-19T10:37:04;99123.56;;;17.32;47.46
78488;BME280;67885;49.758;9.582;2023-03-19T10:39:34;99115.84;;;17.21;47.51
78488;BME280;67885;49.758;9.582;2023-03-19T10:42:19;99089.25;;;17.28;47.24
78488;BME280;67885;49.758;9.582;2023-03-19T10:44:50;99121.53;;;17.43;47.30
78488;BME280;67885;49.758;9.582;2023-03-19T10:47:25;99105.47;;;17.34;47.34
78488;BME280;67885;49.758;9.582;2023-03-19T10:49:52;99102.81;;;17.34;47.03
78488;BME280;67885;49.758;9.582;2023-03-19T10:52:26;99108.13;;;17.51;48.83
78488;BME280;67885;49.758;9.582;2023-03-19T10:54:55;99106.44;;;17.66;47.69
78488;BME280;67885;49.758;9.582;2023-03-19T10:57:25;99105.88;;;17.79;45.84
78488;BME280;67885;49.758;9.582;2023-03-19T10:59:52;99007.28;;;17.27;46.35
78488;BME280;67885;49.758;9.582;2023-03-19T11:02:22;99094.97;;;17.89;45.74
78488;BME280;67885;49.758;9.582;2023-03-19T11:05:05;99096.47;;;18.00;44.45
78488;BME280;67885;49.758;9.582;2023-03-19T11:07:36;99121.91;;;18.04;45.21
78488;BME280;67885;49.758;9.582;2023-03-19T11:10:04;99099.28;;;18.07;45.21
78488;BME280;67885;49.758;9.582;2023-03-19T11:12:38;99096.44;;;18.16;46.57
78488;BME280;67885;49.758;9.582;2023-03-19T11:15:17;99096.84;;;18.28;44.66
78488;BME280;67885;49.758;9.582;2023-03-19T11:17:48;99092.44;;;18.44;46.32
78488;BME280;67885;49.758;9.582;2023-03-19T11:20:21;99087.47;;;18.56;44.45
78488;BME280;67885;49.758;9.582;2023-03-19T11:22:51;99079.78;;;18.52;43.85
78488;BME280;67885;49.758;9.582;2023-03-19T11:25:23;99077.91;;;18.61;42.97
78488;BME280;67885;49.758;9.582;2023-03-19T11:27:58;99085.28;;;18.82;42.75
78488;BME280;67885;49.758;9.582;2023-03-19T11:30:32;99028.31;;;18.57;44.01
78488;BME280;67885;49.758;9.582;2023-03-19T11:33:26;99065.78;;;19.12;40.96
78488;BME280;67885;49.758;9.582;2023-03-19T11:36:08;99075.25;;;19.23;39.92
78488;BME280;67885;49.758;9.582;2023-03-19T11:38:52;99048.69;;;19.13;40.70
78488;BME280;67885;49.758;9.582;2023-03-19T11:41:32;99076.47;;;19.35;40.35
78488;BME280;67885;49.758;9.582;2023-03-19T11:44:05;99069.13;;;19.67;39.57
78488;BME280;67885;49.758;9.582;2023-03-19T11:46:42;99055.84;;;19.65;37.90
78488;BME280;67885;49.758;9.582;2023-03-19T11:49:32;99061.41;;;19.79;37.27
78488;BME280;67885;49.758;9.582;2023-03-19T11:52:11;99058.72;;;19.79;37.24
78488;BME280;67885;49.758;9.582;2023-03-19T11:54:54;98960.81;;;19.07;36.75
78488;BME280;67885;49.758;9.582;2023-03-19T12:03:21;99040.41;;;19.82;37.76
78488;BME280;67885;49.758;9.582;2023-03-19T12:05:56;99037.50;;;19.99;36.44
78488;BME280;67885;49.758;9.582;2023-03-19T12:08:35;99042.03;;;20.13;36.66
78488;BME280;67885;49.758;9.582;2023-03-19T12:11:23;99037.63;;;20.27;35.91
78488;BME280;67885;49.758;9.582;2023-03-19T12:14:01;99024.88;;;20.36;35.39
78488;BME280;67885;49.758;9.582;2023-03-19T12:16:45;99027.84;;;20.41;36.01
78488;BME280;67885;49.758;9.582;2023-03-19T12:19:37;98908.91;;;19.81;35.77
78488;BME280;67885;49.758;9.582;2023-03-19T12:22:17;98999.84;;;20.35;35.50
78488;BME280;67885;49.758;9.582;2023-03-19T12:25:04;99020.34;;;20.36;35.38
78488;BME280;67885;49.758;9.582;2023-03-19T12:27:39;99021.28;;;20.29;34.93
78488;BME280;67885;49.758;9.582;2023-03-19T12:30:18;98994.19;;;20.09;35.77
78488;BME280;67885;49.758;9.582;2023-03-19T12:33:03;99049.47;;;20.33;36.18
78488;BME280;67885;49.758;9.582;2023-03-19T12:35:34;99020.09;;;20.31;35.07
78488;BME280;67885;49.758;9.582;2023-03-19T12:38:08;99003.19;;;20.16;36.66
78488;BME280;67885;49.758;9.582;2023-03-19T12:40:40;99012.69;;;20.33;36.07
78488;BME280;67885;49.758;9.582;2023-03-19T12:43:17;98912.78;;;19.78;35.71
78488;BME280;67885;49.758;9.582;2023-03-19T12:45:49;99019.16;;;20.39;34.62
78488;BME280;67885;49.758;9.582;2023-03-19T12:48:23;98993.72;;;20.20;34.52
78488;BME280;67885;49.758;9.582;2023-03-19T12:50:56;99006.06;;;20.36;35.36
78488;BME280;67885;49.758;9.582;2023-03-19T12:53:37;99006.13;;;20.43;35.53
78488;BME280;67885;49.758;9.582;2023-03-19T12:56:11;99005.09;;;20.44;35.40
78488;BME280;67885;49.758;9.582;2023-03-19T12:58:52;98921.84;;;19.92;35.06
78488;BME280;67885;49.758;9.582;2023-03-19T13:01:25;98998.44;;;20.39;35.52
78488;BME280;67885;49.758;9.582;2023-03-19T13:04:00;98996.22;;;20.43;34.67
78488;BME280;67885;49.758;9.582;2023-03-19T13:06:34;99000.75;;;20.43;34.09
78488;BME280;67885;49.758;9.582;2023-03-19T13:09:06;99002.47;;;20.50;34.26
78488;BME280;67885;49.758;9.582;2023-03-19T13:11:45;98988.34;;;20.42;35.46
78488;BME280;67885;49.758;9.582;2023-03-19T13:14:23;99033.69;;;20.66;34.77
78488;BME280;67885;49.758;9.582;2023-03-19T13:16:58;98996.84;;;20.67;34.27
78488;BME280;67885;49.758;9.582;2023-03-19T13:19:33;98996.91;;;20.74;34.05